sensor_id;sensor_type;location;lat;lon;timestamp;P1;durP1;ratioP1;P2;durP2;ratioP2
1993;SDS011;998;49.906;10.908;2023-04-10T00:02:22;11.87;;;9.23;;
1993;SDS011;998;49.906;10.908;2023-04-10T00:04:51;14.20;;;10.03;;
1993;SDS011;998;49.906;10.908;2023-04-10T00:07:18;14.37;;;10.40;;
1993;SDS011;998;49.906;10.908;2023-04-10T00:09:46;14.87;;;10.27;;
1993;SDS011;998;49.906;10.908;2023-04-10T00:12:13;16.23;;;10.50;;
1993;SDS011;998;49.906;10.908;2023-04-10T00:14:41;18.20;;;10.87;;
1993;SDS011;998;49.906;10.908;2023-04-10T00:17:08;14.67;;;10.63;;
1993;SDS011;998;49.906;10.908;2023-04-10T00:19:35;13.77;;;10.50;;
1993;SDS011;998;49.906;10.908;2023-04-10T00:22:04;14.57;;;10.47;;
1993;SDS011;998;49.906;10.908;2023-04-10T00:24:32;14.40;;;10.10;;
1993;SDS011;998;49.906;10.908;2023-04-10T00:27:00;11.30;;;8.60;;
1993;SDS011;998;49.906;10.908;2023-04-10T00:29:27;15.77;;;10.40;;
1993;SDS011;998;49.906;10.908;2023-04-10T00:31:55;12.30;;;9.00;;
1993;SDS011;998;49.906;10.908;2023-04-10T00:34:23;12.90;;;9.00;;
1993;SDS011;998;49.906;10.908;2023-04-10T00:36:50;19.00;;;9.60;;
1993;SDS011;998;49.906;10.908;2023-04-10T00:39:19;14.00;;;9.90;;
1993;SDS011;998;49.906;10.908;2023-04-10T00:41:46;15.30;;;10.33;;
1993;SDS011;998;49.906;10.908;2023-04-10T00:44:14;12.77;;;9.87;;
1993;SDS011;998;49.906;10.908;2023-04-10T00:46:41;12.27;;;9.43;;
1993;SDS011;998;49.906;10.908;2023-04-10T00:49:09;11.60;;;8.90;;
1993;SDS011;998;49.906;10.908;2023-04-10T00:51:37;17.80;;;9.07;;
1993;SDS011;998;49.906;10.908;2023-04-10T00:54:04;14.30;;;10.10;;
1993;SDS011;998;49.906;10.908;2023-04-10T00:56:35;15.87;;;11.63;;
1993;SDS011;998;49.906;10.908;2023-04-10T00:59:03;14.40;;;9.90;;
1993;SDS011;998;49.906;10.908;2023-04-10T01:01:31;15.30;;;9.63;;
1993;SDS011;998;49.906;10.908;2023-04-10T01:03:58;12.23;;;9.03;;
1993;SDS011;998;49.906;10.908;2023-04-10T01:06:28;13.60;;;9.33;;
1993;SDS011;998;49.906;10.908;2023-04-10T01:09:03;14.13;;;9.70;;
1993;SDS011;998;49.906;10.908;2023-04-10T01:11:43;14.77;;;9.13;;
1993;SDS011;998;49.906;10.908;2023-04-10T01:14:17;14.40;;;9.80;;
1993;SDS011;998;49.906;10.908;2023-04-10T01:16:52;14.33;;;9.63;;
1993;SDS011;998;49.906;10.908;2023-04-10T01:19:25;15.77;;;10.13;;
1993;SDS011;998;49.906;10.908;2023-04-10T01:22:03;14.17;;;10.57;;
1993;SDS011;998;49.906;10.908;2023-04-10T01:24:42;16.57;;;10.37;;
1993;SDS011;998;49.906;10.908;2023-04-10T01:27:29;16.60;;;10.87;;
1993;SDS011;998;49.906;10.908;2023-04-10T01:30:07;17.23;;;10.47;;
1993;SDS011;998;49.906;10.908;2023-04-10T01:32:40;16.40;;;9.80;;
1993;SDS011;998;49.906;10.908;2023-04-10T01:35:09;15.07;;;10.20;;
1993;SDS011;998;49.906;10.908;2023-04-10T01:37:40;25.60;;;14.50;;
1993;SDS011;998;49.906;10.908;2023-04-10T01:40:10;14.53;;;11.07;;
1993;SDS011;998;49.906;10.908;2023-04-10T01:42:42;16.77;;;9.87;;
1993;SDS011;998;49.906;10.908;2023-04-10T01:45:17;13.23;;;9.40;;
1993;SDS011;998;49.906;10.908;2023-04-10T01:47:46;13.77;;;8.90;;
1993;SDS011;998;49.906;10.908;2023-04-10T01:50:15;13.67;;;8.33;;
1993;SDS011;998;49.906;10.908;2023-04-10T01:52:43;11.93;;;8.73;;
1993;SDS011;998;49.906;10.908;2023-04-10T01:55:11;13.47;;;9.53;;
1993;SDS011;998;49.906;10.908;2023-04-10T01:57:39;12.13;;;8.13;;
1993;SDS011;998;49.906;10.908;2023-04-10T02:00:07;13.07;;;9.20;;
1993;SDS011;998;49.906;10.908;2023-04-10T02:02:36;13.30;;;9.97;;
1993;SDS011;998;49.906;10.908;2023-04-10T02:05:04;13.37;;;9.03;;
1993;SDS011;998;49.906;10.908;2023-04-10T02:07:34;11.60;;;8.60;;
1993;SDS011;998;49.906;10.908;2023-04-10T02:10:07;12.47;;;9.47;;
1993;SDS011;998;49.906;10.908;2023-04-10T02:12:38;13.13;;;8.83;;
1993;SDS011;998;49.906;10.908;2023-04-10T02:15:11;12.37;;;8.80;;
1993;SDS011;998;49.906;10.908;2023-04-10T02:17:41;12.60;;;9.40;;
1993;SDS011;998;49.906;10.908;2023-04-10T02:20:09;17.17;;;9.77;;
1993;SDS011;998;49.906;10.908;2023-04-10T02:22:38;11.63;;;8.47;;
1993;SDS011;998;49.906;10.908;2023-04-10T02:25:08;14.60;;;9.77;;
1993;SDS011;998;49.906;10.908;2023-04-10T02:27:36;14.30;;;9.67;;
1993;SDS011;998;49.906;10.908;2023-04-10T02:30:04;11.47;;;8.70;;
1993;SDS011;998;49.906;10.908;2023-04-10T02:32:32;15.33;;;9.40;;
1993;SDS011;998;49.906;10.908;2023-04-10T02:35:02;15.50;;;9.00;;
1993;SDS011;998;49.906;10.908;2023-04-10T02:37:30;12.67;;;8.63;;
1993;SDS011;998;49.906;10.908;2023-04-10T02:39:57;13.60;;;9.33;;
1993;SDS011;998;49.906;10.908;2023-04-10T02:42:25;17.23;;;9.20;;
1993;SDS011;998;49.906;10.908;2023-04-10T02:44:52;12.43;;;8.20;;
1993;SDS011;998;49.906;10.908;2023-04-10T02:47:20;12.03;;;8.20;;
1993;SDS011;998;49.906;10.908;2023-04-10T02:49:48;12.20;;;9.03;;
1993;SDS011;998;49.906;10.908;2023-04-10T02:52:16;16.10;;;9.60;;
1993;SDS011;998;49.906;10.908;2023-04-10T02:54:44;14.10;;;9.13;;
1993;SDS011;998;49.906;10.908;2023-04-10T02:57:11;14.10;;;10.00;;
1993;SDS011;998;49.906;10.908;2023-04-10T02:59:39;15.70;;;9.40;;
1993;SDS011;998;49.906;10.908;2023-04-10T03:02:06;14.67;;;9.40;;
1993;SDS011;998;49.906;10.908;2023-04-10T03:04:34;13.60;;;9.27;;
1993;SDS011;998;49.906;10.908;2023-04-10T03:07:02;15.30;;;8.93;;
1993;SDS011;998;49.906;10.908;2023-04-10T03:09:31;14.20;;;9.27;;
1993;SDS011;998;49.906;10.908;2023-04-10T03:11:58;14.37;;;9.13;;
1993;SDS011;998;49.906;10.908;2023-04-10T03:14:26;13.90;;;9.37;;
1993;SDS011;998;49.906;10.908;2023-04-10T03:16:53;14.63;;;9.10;;
1993;SDS011;998;49.906;10.908;2023-04-10T03:19:21;13.07;;;8.23;;
1993;SDS011;998;49.906;10.908;2023-04-10T03:21:50;11.07;;;7.50;;
1993;SDS011;998;49.906;10.908;2023-04-10T03:24:18;12.23;;;8.47;;
1993;SDS011;998;49.906;10.908;2023-04-10T03:26:47;14.60;;;9.17;;
1993;SDS011;998;49.906;10.908;2023-04-10T03:29:14;14.43;;;9.40;;
1993;SDS011;998;49.906;10.908;2023-04-10T03:31:43;14.80;;;9.00;;
1993;SDS011;998;49.906;10.908;2023-04-10T03:34:10;11.70;;;7.90;;
1993;SDS011;998;49.906;10.908;2023-04-10T03:36:38;12.37;;;8.53;;
1993;SDS011;998;49.906;10.908;2023-04-10T03:39:05;13.50;;;8.63;;
1993;SDS011;998;49.906;10.908;2023-04-10T03:41:32;16.00;;;9.67;;
1993;SDS011;998;49.906;10.908;2023-04-10T03:44:01;13.63;;;9.00;;
1993;SDS011;998;49.906;10.908;2023-04-10T03:46:29;14.10;;;7.87;;
1993;SDS011;998;49.906;10.908;2023-04-10T03:48:56;18.13;;;9.80;;
1993;SDS011;998;49.906;10.908;2023-04-10T03:51:24;14.23;;;10.03;;
1993;SDS011;998;49.906;10.908;2023-04-10T03:53:51;13.20;;;8.60;;
1993;SDS011;998;49.906;10.908;2023-04-10T03:56:19;13.97;;;9.70;;
1993;SDS011;998;49.906;10.908;2023-04-10T03:58:47;18.00;;;9.30;;
1993;SDS011;998;49.906;10.908;2023-04-10T04:01:16;12.77;;;9.13;;
1993;SDS011;998;49.906;10.908;2023-04-10T04:03:43;13.13;;;9.30;;
1993;SDS011;998;49.906;10.908;2023-04-10T04:06:10;12.40;;;8.43;;
1993;SDS011;998;49.906;10.908;2023-04-10T04:08:38;12.57;;;9.10;;
1993;SDS011;998;49.906;10.908;2023-04-10T04:11:05;11.97;;;8.77;;
1993;SDS011;998;49.906;10.908;2023-04-10T04:13:33;14.00;;;9.47;;
1993;SDS011;998;49.906;10.908;2023-04-10T04:16:00;12.27;;;8.33;;
1993;SDS011;998;49.906;10.908;2023-04-10T04:18:29;14.13;;;7.83;;
1993;SDS011;998;49.906;10.908;2023-04-10T04:20:56;13.40;;;9.47;;
1993;SDS011;998;49.906;10.908;2023-04-10T04:23:24;12.20;;;8.63;;
1993;SDS011;998;49.906;10.908;2023-04-10T04:25:51;14.37;;;9.13;;
1993;SDS011;998;49.906;10.908;2023-04-10T04:28:20;13.93;;;8.10;;
1993;SDS011;998;49.906;10.908;2023-04-10T04:30:47;12.40;;;7.73;;
1993;SDS011;998;49.906;10.908;2023-04-10T04:33:15;13.23;;;7.87;;
1993;SDS011;998;49.906;10.908;2023-04-10T04:35:44;9.87;;;7.60;;
1993;SDS011;998;49.906;10.908;2023-04-10T04:38:11;14.07;;;9.30;;
1993;SDS011;998;49.906;10.908;2023-04-10T04:40:40;12.33;;;8.10;;
1993;SDS011;998;49.906;10.908;2023-04-10T04:43:08;17.60;;;8.53;;
1993;SDS011;998;49.906;10.908;2023-04-10T04:45:35;14.70;;;9.40;;
1993;SDS011;998;49.906;10.908;2023-04-10T04:48:03;11.57;;;8.50;;
1993;SDS011;998;49.906;10.908;2023-04-10T04:50:30;10.40;;;7.73;;
1993;SDS011;998;49.906;10.908;2023-04-10T04:52:59;13.63;;;8.40;;
1993;SDS011;998;49.906;10.908;2023-04-10T04:55:26;12.10;;;8.60;;
1993;SDS011;998;49.906;10.908;2023-04-10T04:57:54;14.30;;;8.37;;
1993;SDS011;998;49.906;10.908;2023-04-10T05:00:21;14.10;;;8.87;;
1993;SDS011;998;49.906;10.908;2023-04-10T05:02:49;12.53;;;8.70;;
1993;SDS011;998;49.906;10.908;2023-04-10T05:05:16;13.30;;;9.07;;
1993;SDS011;998;49.906;10.908;2023-04-10T05:07:44;10.70;;;7.90;;
1993;SDS011;998;49.906;10.908;2023-04-10T05:10:13;13.77;;;9.37;;
1993;SDS011;998;49.906;10.908;2023-04-10T05:12:40;14.80;;;9.17;;
1993;SDS011;998;49.906;10.908;2023-04-10T05:15:08;13.73;;;9.00;;
1993;SDS011;998;49.906;10.908;2023-04-10T05:17:36;12.20;;;8.93;;
1993;SDS011;998;49.906;10.908;2023-04-10T05:20:03;13.90;;;9.43;;
1993;SDS011;998;49.906;10.908;2023-04-10T05:22:31;14.47;;;8.57;;
1993;SDS011;998;49.906;10.908;2023-04-10T05:24:59;21.00;;;10.83;;
1993;SDS011;998;49.906;10.908;2023-04-10T05:27:28;13.43;;;9.63;;
1993;SDS011;998;49.906;10.908;2023-04-10T05:29:55;12.17;;;8.57;;
1993;SDS011;998;49.906;10.908;2023-04-10T05:32:23;17.77;;;10.00;;
1993;SDS011;998;49.906;10.908;2023-04-10T05:34:50;16.83;;;10.17;;
1993;SDS011;998;49.906;10.908;2023-04-10T05:37:17;15.47;;;9.57;;
1993;SDS011;998;49.906;10.908;2023-04-10T05:39:44;17.30;;;9.93;;
1993;SDS011;998;49.906;10.908;2023-04-10T05:42:12;16.33;;;9.47;;
1993;SDS011;998;49.906;10.908;2023-04-10T05:44:41;15.77;;;10.20;;
1993;SDS011;998;49.906;10.908;2023-04-10T05:47:09;15.00;;;10.00;;
1993;SDS011;998;49.906;10.908;2023-04-10T05:49:36;14.70;;;9.80;;
1993;SDS011;998;49.906;10.908;2023-04-10T05:52:04;16.40;;;10.70;;
1993;SDS011;998;49.906;10.908;2023-04-10T05:54:31;16.30;;;9.80;;
1993;SDS011;998;49.906;10.908;2023-04-10T05:56:58;13.70;;;9.43;;
1993;SDS011;998;49.906;10.908;2023-04-10T05:59:26;15.90;;;10.03;;
1993;SDS011;998;49.906;10.908;2023-04-10T06:01:55;17.90;;;10.60;;
1993;SDS011;998;49.906;10.908;2023-04-10T06:04:23;15.27;;;10.10;;
1993;SDS011;998;49.906;10.908;2023-04-10T06:06:51;17.30;;;10.77;;
1993;SDS011;998;49.906;10.908;2023-04-10T06:09:18;17.00;;;9.90;;
1993;SDS011;998;49.906;10.908;2023-04-10T06:11:45;14.77;;;9.93;;
1993;SDS011;998;49.906;10.908;2023-04-10T06:14:13;15.37;;;9.60;;
1993;SDS011;998;49.906;10.908;2023-04-10T06:16:40;12.53;;;9.37;;
1993;SDS011;998;49.906;10.908;2023-04-10T06:19:09;15.70;;;10.60;;
1993;SDS011;998;49.906;10.908;2023-04-10T06:21:37;13.63;;;9.10;;
1993;SDS011;998;49.906;10.908;2023-04-10T06:24:04;24.10;;;11.00;;
1993;SDS011;998;49.906;10.908;2023-04-10T06:26:32;16.80;;;12.03;;
1993;SDS011;998;49.906;10.908;2023-04-10T06:28:59;17.40;;;11.00;;
1993;SDS011;998;49.906;10.908;2023-04-10T06:31:26;20.20;;;10.53;;
1993;SDS011;998;49.906;10.908;2023-04-10T06:33:54;17.53;;;11.30;;
1993;SDS011;998;49.906;10.908;2023-04-10T06:36:23;16.57;;;11.57;;
1993;SDS011;998;49.906;10.908;2023-04-10T06:38:51;16.70;;;10.50;;
1993;SDS011;998;49.906;10.908;2023-04-10T06:41:18;15.70;;;10.30;;
1993;SDS011;998;49.906;10.908;2023-04-10T06:43:45;19.67;;;11.00;;
1993;SDS011;998;49.906;10.908;2023-04-10T06:46:13;16.13;;;11.10;;
1993;SDS011;998;49.906;10.908;2023-04-10T06:48:42;15.67;;;11.23;;
1993;SDS011;998;49.906;10.908;2023-04-10T06:51:09;19.77;;;10.90;;
1993;SDS011;998;49.906;10.908;2023-04-10T06:53:38;18.50;;;11.00;;
1993;SDS011;998;49.906;10.908;2023-04-10T06:56:05;19.87;;;11.67;;
1993;SDS011;998;49.906;10.908;2023-04-10T06:58:33;20.80;;;12.00;;
1993;SDS011;998;49.906;10.908;2023-04-10T07:01:00;15.07;;;10.80;;
1993;SDS011;998;49.906;10.908;2023-04-10T07:03:29;20.30;;;12.33;;
1993;SDS011;998;49.906;10.908;2023-04-10T07:05:56;15.27;;;11.50;;
1993;SDS011;998;49.906;10.908;2023-04-10T07:08:23;16.20;;;10.43;;
1993;SDS011;998;49.906;10.908;2023-04-10T07:10:52;19.00;;;13.00;;
1993;SDS011;998;49.906;10.908;2023-04-10T07:13:20;17.20;;;11.10;;
1993;SDS011;998;49.906;10.908;2023-04-10T07:15:47;16.20;;;11.33;;
1993;SDS011;998;49.906;10.908;2023-04-10T07:18:14;15.97;;;11.27;;
1993;SDS011;998;49.906;10.908;2023-04-10T07:20:42;18.70;;;12.50;;
1993;SDS011;998;49.906;10.908;2023-04-10T07:23:09;17.20;;;10.90;;
1993;SDS011;998;49.906;10.908;2023-04-10T07:25:37;18.50;;;10.77;;
1993;SDS011;998;49.906;10.908;2023-04-10T07:28:06;16.80;;;11.90;;
1993;SDS011;998;49.906;10.908;2023-04-10T07:30:33;15.83;;;11.20;;
1993;SDS011;998;49.906;10.908;2023-04-10T07:33:00;16.83;;;11.30;;
1993;SDS011;998;49.906;10.908;2023-04-10T07:35:28;18.53;;;11.73;;
1993;SDS011;998;49.906;10.908;2023-04-10T07:37:55;17.00;;;10.50;;
1993;SDS011;998;49.906;10.908;2023-04-10T07:40:22;19.63;;;12.10;;
1993;SDS011;998;49.906;10.908;2023-04-10T07:42:50;14.60;;;10.70;;
1993;SDS011;998;49.906;10.908;2023-04-10T07:45:19;18.17;;;10.40;;
1993;SDS011;998;49.906;10.908;2023-04-10T07:47:47;17.60;;;11.93;;
1993;SDS011;998;49.906;10.908;2023-04-10T07:50:14;20.10;;;10.80;;
1993;SDS011;998;49.906;10.908;2023-04-10T07:52:41;15.60;;;10.37;;
1993;SDS011;998;49.906;10.908;2023-04-10T07:55:09;16.40;;;10.50;;
1993;SDS011;998;49.906;10.908;2023-04-10T07:57:36;15.43;;;9.80;;
1993;SDS011;998;49.906;10.908;2023-04-10T08:00:04;13.13;;;9.07;;
1993;SDS011;998;49.906;10.908;2023-04-10T08:02:34;16.45;;;11.00;;
1993;SDS011;998;49.906;10.908;2023-04-10T08:05:01;16.97;;;11.90;;
1993;SDS011;998;49.906;10.908;2023-04-10T08:07:28;16.87;;;11.30;;
1993;SDS011;998;49.906;10.908;2023-04-10T08:09:55;16.23;;;10.23;;
1993;SDS011;998;49.906;10.908;2023-04-10T08:12:22;13.57;;;9.30;;
1993;SDS011;998;49.906;10.908;2023-04-10T08:14:50;12.23;;;8.33;;
1993;SDS011;998;49.906;10.908;2023-04-10T08:17:17;12.93;;;8.33;;
1993;SDS011;998;49.906;10.908;2023-04-10T08:19:46;11.43;;;7.93;;
1993;SDS011;998;49.906;10.908;2023-04-10T08:22:14;16.60;;;9.23;;
1993;SDS011;998;49.906;10.908;2023-04-10T08:24:41;13.67;;;8.63;;
1993;SDS011;998;49.906;10.908;2023-04-10T08:27:08;15.43;;;10.07;;
1993;SDS011;998;49.906;10.908;2023-04-10T08:29:36;16.60;;;10.17;;
1993;SDS011;998;49.906;10.908;2023-04-10T08:32:03;13.63;;;8.77;;
1993;SDS011;998;49.906;10.908;2023-04-10T08:34:31;13.40;;;9.07;;
1993;SDS011;998;49.906;10.908;2023-04-10T08:37:00;10.93;;;7.00;;
1993;SDS011;998;49.906;10.908;2023-04-10T08:39:33;8.33;;;5.57;;
1993;SDS011;998;49.906;10.908;2023-04-10T08:42:01;12.40;;;8.30;;
1993;SDS011;998;49.906;10.908;2023-04-10T08:44:28;14.43;;;8.03;;
1993;SDS011;998;49.906;10.908;2023-04-10T08:46:56;14.57;;;9.87;;
1993;SDS011;998;49.906;10.908;2023-04-10T08:49:27;15.80;;;8.10;;
1993;SDS011;998;49.906;10.908;2023-04-10T08:51:57;14.73;;;9.90;;
1993;SDS011;998;49.906;10.908;2023-04-10T08:54:27;12.53;;;8.90;;
1993;SDS011;998;49.906;10.908;2023-04-10T08:56:58;12.00;;;9.00;;
1993;SDS011;998;49.906;10.908;2023-04-10T08:59:26;13.10;;;8.50;;
1993;SDS011;998;49.906;10.908;2023-04-10T09:01:55;12.53;;;7.93;;
1993;SDS011;998;49.906;10.908;2023-04-10T09:04:22;12.60;;;7.97;;
1993;SDS011;998;49.906;10.908;2023-04-10T09:06:50;10.37;;;6.87;;
1993;SDS011;998;49.906;10.908;2023-04-10T09:09:20;7.50;;;5.90;;
1993;SDS011;998;49.906;10.908;2023-04-10T09:11:59;8.37;;;5.73;;
1993;SDS011;998;49.906;10.908;2023-04-10T09:14:28;9.60;;;6.40;;
1993;SDS011;998;49.906;10.908;2023-04-10T09:17:10;11.77;;;7.23;;
1993;SDS011;998;49.906;10.908;2023-04-10T09:19:39;12.77;;;8.47;;
1993;SDS011;998;49.906;10.908;2023-04-10T09:22:07;10.97;;;7.53;;
1993;SDS011;998;49.906;10.908;2023-04-10T09:24:36;12.43;;;6.77;;
1993;SDS011;998;49.906;10.908;2023-04-10T09:27:05;11.50;;;6.77;;
1993;SDS011;998;49.906;10.908;2023-04-10T09:29:43;9.90;;;6.53;;
1993;SDS011;998;49.906;10.908;2023-04-10T09:32:13;12.90;;;8.47;;
1993;SDS011;998;49.906;10.908;2023-04-10T09:35:01;9.87;;;5.90;;
1993;SDS011;998;49.906;10.908;2023-04-10T09:37:30;9.87;;;7.57;;
1993;SDS011;998;49.906;10.908;2023-04-10T09:39:59;11.37;;;7.90;;
1993;SDS011;998;49.906;10.908;2023-04-10T09:42:30;6.93;;;5.63;;
1993;SDS011;998;49.906;10.908;2023-04-10T09:44:58;12.50;;;7.63;;
1993;SDS011;998;49.906;10.908;2023-04-10T09:47:26;8.93;;;6.37;;
1993;SDS011;998;49.906;10.908;2023-04-10T09:49:55;9.33;;;6.80;;
1993;SDS011;998;49.906;10.908;2023-04-10T09:52:25;9.93;;;6.70;;
1993;SDS011;998;49.906;10.908;2023-04-10T09:54:54;8.57;;;5.83;;
1993;SDS011;998;49.906;10.908;2023-04-10T09:57:24;9.70;;;6.43;;
1993;SDS011;998;49.906;10.908;2023-04-10T09:59:53;11.90;;;7.03;;
1993;SDS011;998;49.906;10.908;2023-04-10T10:02:22;9.93;;;6.47;;
1993;SDS011;998;49.906;10.908;2023-04-10T10:04:50;8.80;;;6.07;;
1993;SDS011;998;49.906;10.908;2023-04-10T10:07:19;11.97;;;7.70;;
1993;SDS011;998;49.906;10.908;2023-04-10T10:09:49;12.00;;;8.10;;
1993;SDS011;998;49.906;10.908;2023-04-10T10:12:18;9.77;;;6.90;;
1993;SDS011;998;49.906;10.908;2023-04-10T10:14:50;10.60;;;7.13;;
1993;SDS011;998;49.906;10.908;2023-04-10T10:17:23;8.63;;;5.50;;
1993;SDS011;998;49.906;10.908;2023-04-10T10:19:55;11.70;;;7.70;;
1993;SDS011;998;49.906;10.908;2023-04-10T10:22:28;10.90;;;6.83;;
1993;SDS011;998;49.906;10.908;2023-04-10T10:24:55;10.30;;;7.27;;
1993;SDS011;998;49.906;10.908;2023-04-10T10:27:26;7.90;;;6.00;;
1993;SDS011;998;49.906;10.908;2023-04-10T10:29:58;11.63;;;7.40;;
1993;SDS011;998;49.906;10.908;2023-04-10T10:32:26;9.80;;;7.13;;
1993;SDS011;998;49.906;10.908;2023-04-10T10:34:53;25.57;;;16.10;;
1993;SDS011;998;49.906;10.908;2023-04-10T10:37:22;10.80;;;7.90;;
1993;SDS011;998;49.906;10.908;2023-04-10T10:39:52;9.40;;;6.80;;
1993;SDS011;998;49.906;10.908;2023-04-10T10:42:29;9.93;;;6.03;;
1993;SDS011;998;49.906;10.908;2023-04-10T10:45:07;8.33;;;5.07;;
1993;SDS011;998;49.906;10.908;2023-04-10T10:47:40;12.50;;;9.27;;
1993;SDS011;998;49.906;10.908;2023-04-10T10:50:11;11.73;;;7.33;;
1993;SDS011;998;49.906;10.908;2023-04-10T10:52:48;8.20;;;5.43;;
1993;SDS011;998;49.906;10.908;2023-04-10T10:55:27;11.20;;;6.53;;
1993;SDS011;998;49.906;10.908;2023-04-10T10:57:59;11.40;;;7.20;;
1993;SDS011;998;49.906;10.908;2023-04-10T11:03:46;12.10;;;6.73;;
1993;SDS011;998;49.906;10.908;2023-04-10T11:06:14;11.90;;;7.90;;
1993;SDS011;998;49.906;10.908;2023-04-10T11:08:43;10.77;;;6.83;;
1993;SDS011;998;49.906;10.908;2023-04-10T11:11:13;12.40;;;7.90;;
1993;SDS011;998;49.906;10.908;2023-04-10T11:16:44;9.10;;;5.53;;
1993;SDS011;998;49.906;10.908;2023-04-10T11:19:14;10.00;;;6.70;;
1993;SDS011;998;49.906;10.908;2023-04-10T11:21:59;9.17;;;6.50;;
1993;SDS011;998;49.906;10.908;2023-04-10T11:27:36;7.43;;;5.50;;
1993;SDS011;998;49.906;10.908;2023-04-10T11:32:58;7.77;;;5.10;;
1993;SDS011;998;49.906;10.908;2023-04-10T11:35:27;7.63;;;5.17;;
1993;SDS011;998;49.906;10.908;2023-04-10T11:38:09;9.63;;;5.77;;
1993;SDS011;998;49.906;10.908;2023-04-10T11:40:57;9.37;;;5.90;;
1993;SDS011;998;49.906;10.908;2023-04-10T11:43:28;8.17;;;6.00;;
1993;SDS011;998;49.906;10.908;2023-04-10T11:46:03;8.57;;;6.00;;
1993;SDS011;998;49.906;10.908;2023-04-10T11:48:31;7.50;;;5.40;;
1993;SDS011;998;49.906;10.908;2023-04-10T11:51:08;8.47;;;5.80;;
1993;SDS011;998;49.906;10.908;2023-04-10T11:53:37;7.33;;;5.50;;
1993;SDS011;998;49.906;10.908;2023-04-10T11:56:05;7.10;;;5.10;;
1993;SDS011;998;49.906;10.908;2023-04-10T11:58:44;8.03;;;5.53;;
1993;SDS011;998;49.906;10.908;2023-04-10T12:01:13;7.43;;;5.10;;
1993;SDS011;998;49.906;10.908;2023-04-10T12:03:41;6.80;;;5.70;;
1993;SDS011;998;49.906;10.908;2023-04-10T12:06:10;7.07;;;5.00;;
1993;SDS011;998;49.906;10.908;2023-04-10T12:08:40;6.63;;;5.10;;
1993;SDS011;998;49.906;10.908;2023-04-10T12:11:10;7.53;;;5.83;;
1993;SDS011;998;49.906;10.908;2023-04-10T12:13:39;12.10;;;8.67;;
1993;SDS011;998;49.906;10.908;2023-04-10T12:16:07;8.97;;;6.10;;
1993;SDS011;998;49.906;10.908;2023-04-10T12:18:35;7.40;;;5.83;;
1993;SDS011;998;49.906;10.908;2023-04-10T12:21:04;8.63;;;5.67;;
1993;SDS011;998;49.906;10.908;2023-04-10T12:23:35;7.13;;;5.10;;
1993;SDS011;998;49.906;10.908;2023-04-10T12:26:07;8.90;;;6.30;;
1993;SDS011;998;49.906;10.908;2023-04-10T12:28:38;11.70;;;8.67;;
1993;SDS011;998;49.906;10.908;2023-04-10T12:31:06;7.10;;;5.37;;
1993;SDS011;998;49.906;10.908;2023-04-10T12:33:34;6.70;;;5.60;;
1993;SDS011;998;49.906;10.908;2023-04-10T12:36:01;6.70;;;5.37;;
1993;SDS011;998;49.906;10.908;2023-04-10T12:38:38;6.73;;;5.07;;
1993;SDS011;998;49.906;10.908;2023-04-10T12:41:09;6.90;;;5.13;;
1993;SDS011;998;49.906;10.908;2023-04-10T12:43:37;7.17;;;5.67;;
1993;SDS011;998;49.906;10.908;2023-04-10T12:46:06;7.10;;;5.10;;
1993;SDS011;998;49.906;10.908;2023-04-10T12:48:35;7.27;;;6.33;;
1993;SDS011;998;49.906;10.908;2023-04-10T12:51:03;6.27;;;4.73;;
1993;SDS011;998;49.906;10.908;2023-04-10T12:53:30;6.33;;;4.07;;
1993;SDS011;998;49.906;10.908;2023-04-10T12:56:09;6.30;;;4.80;;
1993;SDS011;998;49.906;10.908;2023-04-10T12:58:37;8.40;;;6.17;;
1993;SDS011;998;49.906;10.908;2023-04-10T13:01:07;7.13;;;5.27;;
1993;SDS011;998;49.906;10.908;2023-04-10T13:03:35;5.83;;;4.50;;
1993;SDS011;998;49.906;10.908;2023-04-10T13:06:04;5.50;;;4.40;;
1993;SDS011;998;49.906;10.908;2023-04-10T13:08:32;5.13;;;4.10;;
1993;SDS011;998;49.906;10.908;2023-04-10T13:11:00;11.30;;;8.10;;
1993;SDS011;998;49.906;10.908;2023-04-10T13:13:29;5.97;;;4.23;;
1993;SDS011;998;49.906;10.908;2023-04-10T13:15:57;5.17;;;3.60;;
1993;SDS011;998;49.906;10.908;2023-04-10T13:18:25;5.93;;;4.17;;
1993;SDS011;998;49.906;10.908;2023-04-10T13:20:52;7.80;;;6.13;;
1993;SDS011;998;49.906;10.908;2023-04-10T13:23:20;7.10;;;5.23;;
1993;SDS011;998;49.906;10.908;2023-04-10T13:25:47;6.70;;;4.90;;
1993;SDS011;998;49.906;10.908;2023-04-10T13:28:15;6.57;;;5.80;;
1993;SDS011;998;49.906;10.908;2023-04-10T13:30:44;5.20;;;4.20;;
1993;SDS011;998;49.906;10.908;2023-04-10T13:33:12;6.03;;;4.40;;
1993;SDS011;998;49.906;10.908;2023-04-10T13:35:39;6.77;;;5.03;;
1993;SDS011;998;49.906;10.908;2023-04-10T13:38:06;5.63;;;4.57;;
1993;SDS011;998;49.906;10.908;2023-04-10T13:40:35;5.40;;;3.90;;
1993;SDS011;998;49.906;10.908;2023-04-10T13:43:03;9.10;;;4.60;;
1993;SDS011;998;49.906;10.908;2023-04-10T13:45:30;5.13;;;4.13;;
1993;SDS011;998;49.906;10.908;2023-04-10T13:48:00;4.93;;;4.10;;
1993;SDS011;998;49.906;10.908;2023-04-10T13:50:27;5.57;;;4.33;;
1993;SDS011;998;49.906;10.908;2023-04-10T13:52:55;5.43;;;4.20;;
1993;SDS011;998;49.906;10.908;2023-04-10T13:55:22;4.37;;;3.20;;
1993;SDS011;998;49.906;10.908;2023-04-10T13:57:50;6.37;;;3.93;;
1993;SDS011;998;49.906;10.908;2023-04-10T14:00:18;5.63;;;3.97;;
1993;SDS011;998;49.906;10.908;2023-04-10T14:02:45;4.83;;;3.90;;
1993;SDS011;998;49.906;10.908;2023-04-10T14:05:14;5.80;;;4.53;;
1993;SDS011;998;49.906;10.908;2023-04-10T14:07:41;4.40;;;2.97;;
1993;SDS011;998;49.906;10.908;2023-04-10T14:10:09;4.73;;;3.43;;
1993;SDS011;998;49.906;10.908;2023-04-10T14:12:36;7.30;;;3.33;;
1993;SDS011;998;49.906;10.908;2023-04-10T14:15:04;4.57;;;3.70;;
1993;SDS011;998;49.906;10.908;2023-04-10T14:17:32;5.03;;;4.30;;
1993;SDS011;998;49.906;10.908;2023-04-10T14:20:00;4.70;;;3.40;;
1993;SDS011;998;49.906;10.908;2023-04-10T14:22:29;4.97;;;3.73;;
1993;SDS011;998;49.906;10.908;2023-04-10T14:24:56;6.13;;;3.73;;
1993;SDS011;998;49.906;10.908;2023-04-10T14:27:24;5.87;;;3.90;;
1993;SDS011;998;49.906;10.908;2023-04-10T14:29:51;5.20;;;3.93;;
1993;SDS011;998;49.906;10.908;2023-04-10T14:32:19;4.87;;;3.23;;
1993;SDS011;998;49.906;10.908;2023-04-10T14:34:46;5.67;;;3.17;;
1993;SDS011;998;49.906;10.908;2023-04-10T14:37:14;4.83;;;3.47;;
1993;SDS011;998;49.906;10.908;2023-04-10T14:39:44;5.13;;;3.77;;
1993;SDS011;998;49.906;10.908;2023-04-10T14:42:11;4.17;;;2.83;;
1993;SDS011;998;49.906;10.908;2023-04-10T14:44:39;4.10;;;3.20;;
1993;SDS011;998;49.906;10.908;2023-04-10T14:47:06;5.00;;;3.00;;
1993;SDS011;998;49.906;10.908;2023-04-10T14:49:34;5.53;;;2.90;;
1993;SDS011;998;49.906;10.908;2023-04-10T14:52:02;5.57;;;3.40;;
1993;SDS011;998;49.906;10.908;2023-04-10T14:54:29;7.70;;;3.33;;
1993;SDS011;998;49.906;10.908;2023-04-10T14:56:58;4.67;;;3.20;;
1993;SDS011;998;49.906;10.908;2023-04-10T14:59:26;6.47;;;3.80;;
1993;SDS011;998;49.906;10.908;2023-04-10T15:01:54;4.73;;;3.20;;
1993;SDS011;998;49.906;10.908;2023-04-10T15:04:21;4.97;;;3.47;;
1993;SDS011;998;49.906;10.908;2023-04-10T15:06:48;6.30;;;5.07;;
1993;SDS011;998;49.906;10.908;2023-04-10T15:09:16;5.50;;;2.80;;
1993;SDS011;998;49.906;10.908;2023-04-10T15:11:43;7.50;;;3.23;;
1993;SDS011;998;49.906;10.908;2023-04-10T15:14:12;4.93;;;3.87;;
1993;SDS011;998;49.906;10.908;2023-04-10T15:16:40;5.03;;;3.63;;
1993;SDS011;998;49.906;10.908;2023-04-10T15:19:07;4.83;;;3.23;;
1993;SDS011;998;49.906;10.908;2023-04-10T15:21:35;5.20;;;2.90;;
1993;SDS011;998;49.906;10.908;2023-04-10T15:24:02;5.03;;;3.20;;
1993;SDS011;998;49.906;10.908;2023-04-10T15:26:30;4.30;;;3.43;;